sensor_id;sensor_type;location;lat;lon;timestamp;P1;durP1;ratioP1;P2;durP2;ratioP2
10122;SDS011;5101;49.038;8.710;2023-04-08T00:02:23;4.88;;;3.78;;
10122;SDS011;5101;49.038;8.710;2023-04-08T00:04:48;4.30;;;3.90;;
10122;SDS011;5101;49.038;8.710;2023-04-08T00:07:14;4.60;;;4.15;;
10122;SDS011;5101;49.038;8.710;2023-04-08T00:09:39;4.70;;;4.18;;
10122;SDS011;5101;49.038;8.710;2023-04-08T00:12:05;4.82;;;4.32;;
10122;SDS011;5101;49.038;8.710;2023-04-08T00:14:31;5.22;;;3.92;;
10122;SDS011;5101;49.038;8.710;2023-04-08T00:16:56;4.85;;;4.32;;
10122;SDS011;5101;49.038;8.710;2023-04-08T00:19:22;5.15;;;4.13;;
10122;SDS011;5101;49.038;8.710;2023-04-08T00:21:47;5.97;;;4.75;;
10122;SDS011;5101;49.038;8.710;2023-04-08T00:24:13;4.47;;;3.97;;
10122;SDS011;5101;49.038;8.710;2023-04-08T00:26:38;5.15;;;4.65;;
10122;SDS011;5101;49.038;8.710;2023-04-08T00:29:04;5.28;;;4.68;;
10122;SDS011;5101;49.038;8.710;2023-04-08T00:31:30;7.93;;;4.75;;
10122;SDS011;5101;49.038;8.710;2023-04-08T00:33:55;5.13;;;4.45;;
10122;SDS011;5101;49.038;8.710;2023-04-08T00:36:22;6.05;;;4.97;;
10122;SDS011;5101;49.038;8.710;2023-04-08T00:38:47;5.10;;;4.40;;
10122;SDS011;5101;49.038;8.710;2023-04-08T00:41:13;5.22;;;4.63;;
10122;SDS011;5101;49.038;8.710;2023-04-08T00:43:38;7.47;;;4.80;;
10122;SDS011;5101;49.038;8.710;2023-04-08T00:46:04;6.93;;;5.22;;
10122;SDS011;5101;49.038;8.710;2023-04-08T00:48:30;5.35;;;4.82;;
10122;SDS011;5101;49.038;8.710;2023-04-08T00:50:56;6.22;;;5.40;;
10122;SDS011;5101;49.038;8.710;2023-04-08T00:53:22;7.93;;;5.75;;
10122;SDS011;5101;49.038;8.710;2023-04-08T00:55:48;7.40;;;5.10;;
10122;SDS011;5101;49.038;8.710;2023-04-08T00:58:13;7.53;;;5.57;;
10122;SDS011;5101;49.038;8.710;2023-04-08T01:00:41;7.32;;;5.82;;
10122;SDS011;5101;49.038;8.710;2023-04-08T01:03:17;7.78;;;6.55;;
10122;SDS011;5101;49.038;8.710;2023-04-08T01:08:59;7.57;;;6.57;;
10122;SDS011;5101;49.038;8.710;2023-04-08T01:11:29;8.60;;;6.75;;
10122;SDS011;5101;49.038;8.710;2023-04-08T01:13:58;7.82;;;6.43;;
10122;SDS011;5101;49.038;8.710;2023-04-08T01:16:26;7.68;;;6.88;;
10122;SDS011;5101;49.038;8.710;2023-04-08T01:18:52;7.93;;;6.65;;
10122;SDS011;5101;49.038;8.710;2023-04-08T01:21:19;7.68;;;6.65;;
10122;SDS011;5101;49.038;8.710;2023-04-08T01:23:55;8.38;;;6.75;;
10122;SDS011;5101;49.038;8.710;2023-04-08T01:26:26;7.75;;;6.78;;
10122;SDS011;5101;49.038;8.710;2023-04-08T01:28:55;9.93;;;7.07;;
10122;SDS011;5101;49.038;8.710;2023-04-08T01:31:23;7.22;;;6.15;;
10122;SDS011;5101;49.038;8.710;2023-04-08T01:33:50;7.72;;;6.28;;
10122;SDS011;5101;49.038;8.710;2023-04-08T01:36:16;8.43;;;6.80;;
10122;SDS011;5101;49.038;8.710;2023-04-08T01:38:44;7.63;;;6.70;;
10122;SDS011;5101;49.038;8.710;2023-04-08T01:41:11;9.23;;;6.88;;
10122;SDS011;5101;49.038;8.710;2023-04-08T01:43:39;8.38;;;7.20;;
10122;SDS011;5101;49.038;8.710;2023-04-08T01:46:07;9.75;;;7.20;;
10122;SDS011;5101;49.038;8.710;2023-04-08T01:48:35;7.78;;;6.43;;
10122;SDS011;5101;49.038;8.710;2023-04-08T01:51:03;8.15;;;6.68;;
10122;SDS011;5101;49.038;8.710;2023-04-08T01:53:30;8.60;;;7.10;;
10122;SDS011;5101;49.038;8.710;2023-04-08T01:55:57;8.85;;;7.10;;
10122;SDS011;5101;49.038;8.710;2023-04-08T01:58:27;8.82;;;7.80;;
10122;SDS011;5101;49.038;8.710;2023-04-08T02:01:01;9.30;;;7.45;;
10122;SDS011;5101;49.038;8.710;2023-04-08T02:03:27;10.15;;;7.55;;
10122;SDS011;5101;49.038;8.710;2023-04-08T02:05:54;9.68;;;8.05;;
10122;SDS011;5101;49.038;8.710;2023-04-08T02:08:20;10.07;;;7.93;;
10122;SDS011;5101;49.038;8.710;2023-04-08T02:10:45;10.23;;;7.45;;
10122;SDS011;5101;49.038;8.710;2023-04-08T02:13:11;9.75;;;7.65;;
10122;SDS011;5101;49.038;8.710;2023-04-08T02:15:37;10.43;;;7.88;;
10122;SDS011;5101;49.038;8.710;2023-04-08T02:18:16;8.65;;;7.20;;
10122;SDS011;5101;49.038;8.710;2023-04-08T02:20:53;10.68;;;8.20;;
10122;SDS011;5101;49.038;8.710;2023-04-08T02:23:30;10.30;;;8.38;;
10122;SDS011;5101;49.038;8.710;2023-04-08T02:25:58;10.50;;;8.07;;
10122;SDS011;5101;49.038;8.710;2023-04-08T02:28:25;10.02;;;8.32;;
10122;SDS011;5101;49.038;8.710;2023-04-08T02:30:52;11.77;;;9.13;;
10122;SDS011;5101;49.038;8.710;2023-04-08T02:33:20;10.45;;;8.38;;
10122;SDS011;5101;49.038;8.710;2023-04-08T02:35:47;10.40;;;8.48;;
10122;SDS011;5101;49.038;8.710;2023-04-08T02:38:14;11.05;;;8.52;;
10122;SDS011;5101;49.038;8.710;2023-04-08T02:40:40;10.80;;;9.40;;
10122;SDS011;5101;49.038;8.710;2023-04-08T02:43:05;11.18;;;8.73;;
10122;SDS011;5101;49.038;8.710;2023-04-08T02:45:37;11.48;;;9.25;;
10122;SDS011;5101;49.038;8.710;2023-04-08T02:48:04;10.93;;;9.05;;
10122;SDS011;5101;49.038;8.710;2023-04-08T02:50:30;12.50;;;9.00;;
10122;SDS011;5101;49.038;8.710;2023-04-08T02:52:56;12.82;;;9.35;;
10122;SDS011;5101;49.038;8.710;2023-04-08T02:55:21;11.40;;;9.13;;
10122;SDS011;5101;49.038;8.710;2023-04-08T02:57:47;12.98;;;8.93;;
10122;SDS011;5101;49.038;8.710;2023-04-08T03:00:13;11.25;;;8.93;;
10122;SDS011;5101;49.038;8.710;2023-04-08T03:02:38;12.40;;;9.13;;
10122;SDS011;5101;49.038;8.710;2023-04-08T03:05:05;11.48;;;8.95;;
10122;SDS011;5101;49.038;8.710;2023-04-08T03:07:31;10.70;;;8.77;;
10122;SDS011;5101;49.038;8.710;2023-04-08T03:09:57;10.80;;;9.07;;
10122;SDS011;5101;49.038;8.710;2023-04-08T03:12:23;9.88;;;8.30;;
10122;SDS011;5101;49.038;8.710;2023-04-08T03:14:49;11.68;;;8.30;;
10122;SDS011;5101;49.038;8.710;2023-04-08T03:17:15;11.35;;;8.82;;
10122;SDS011;5101;49.038;8.710;2023-04-08T03:19:41;12.40;;;9.43;;
10122;SDS011;5101;49.038;8.710;2023-04-08T03:22:06;10.43;;;8.55;;
10122;SDS011;5101;49.038;8.710;2023-04-08T03:24:33;12.88;;;9.30;;
10122;SDS011;5101;49.038;8.710;2023-04-08T03:26:59;11.02;;;8.60;;
10122;SDS011;5101;49.038;8.710;2023-04-08T03:29:25;12.15;;;8.75;;
10122;SDS011;5101;49.038;8.710;2023-04-08T03:31:51;10.10;;;8.57;;
10122;SDS011;5101;49.038;8.710;2023-04-08T03:34:16;11.95;;;8.85;;
10122;SDS011;5101;49.038;8.710;2023-04-08T03:36:42;13.10;;;8.75;;
10122;SDS011;5101;49.038;8.710;2023-04-08T03:39:07;12.02;;;8.88;;
10122;SDS011;5101;49.038;8.710;2023-04-08T03:41:34;10.73;;;8.82;;
10122;SDS011;5101;49.038;8.710;2023-04-08T03:43:59;12.63;;;9.88;;
10122;SDS011;5101;49.038;8.710;2023-04-08T03:46:25;11.30;;;8.77;;
10122;SDS011;5101;49.038;8.710;2023-04-08T03:48:51;11.63;;;9.23;;
10122;SDS011;5101;49.038;8.710;2023-04-08T03:51:16;11.68;;;9.35;;
10122;SDS011;5101;49.038;8.710;2023-04-08T03:53:42;10.32;;;8.75;;
10122;SDS011;5101;49.038;8.710;2023-04-08T03:56:07;11.32;;;9.02;;
10122;SDS011;5101;49.038;8.710;2023-04-08T03:58:33;10.63;;;9.20;;
10122;SDS011;5101;49.038;8.710;2023-04-08T04:00:58;13.18;;;9.40;;
10122;SDS011;5101;49.038;8.710;2023-04-08T04:03:24;13.48;;;10.48;;
10122;SDS011;5101;49.038;8.710;2023-04-08T04:05:50;13.18;;;10.00;;
10122;SDS011;5101;49.038;8.710;2023-04-08T04:08:15;13.93;;;9.85;;
10122;SDS011;5101;49.038;8.710;2023-04-08T04:10:41;12.98;;;10.38;;
10122;SDS011;5101;49.038;8.710;2023-04-08T04:13:06;15.38;;;10.75;;
10122;SDS011;5101;49.038;8.710;2023-04-08T04:15:32;15.18;;;10.75;;
10122;SDS011;5101;49.038;8.710;2023-04-08T04:17:57;15.07;;;11.00;;
10122;SDS011;5101;49.038;8.710;2023-04-08T04:20:23;13.32;;;9.90;;
10122;SDS011;5101;49.038;8.710;2023-04-08T04:22:50;11.45;;;9.52;;
10122;SDS011;5101;49.038;8.710;2023-04-08T04:25:15;13.85;;;10.80;;
10122;SDS011;5101;49.038;8.710;2023-04-08T04:27:41;13.85;;;10.45;;
10122;SDS011;5101;49.038;8.710;2023-04-08T04:30:07;13.27;;;9.57;;
10122;SDS011;5101;49.038;8.710;2023-04-08T04:32:33;13.93;;;10.30;;
10122;SDS011;5101;49.038;8.710;2023-04-08T04:34:59;13.73;;;10.80;;
10122;SDS011;5101;49.038;8.710;2023-04-08T04:37:25;13.13;;;10.73;;
10122;SDS011;5101;49.038;8.710;2023-04-08T04:39:51;12.77;;;10.18;;
10122;SDS011;5101;49.038;8.710;2023-04-08T04:42:16;14.23;;;10.98;;
10122;SDS011;5101;49.038;8.710;2023-04-08T04:44:42;15.52;;;10.65;;
10122;SDS011;5101;49.038;8.710;2023-04-08T04:47:08;13.35;;;10.35;;
10122;SDS011;5101;49.038;8.710;2023-04-08T04:49:34;13.90;;;10.05;;
10122;SDS011;5101;49.038;8.710;2023-04-08T04:51:59;14.15;;;10.50;;
10122;SDS011;5101;49.038;8.710;2023-04-08T04:54:25;13.63;;;10.27;;
10122;SDS011;5101;49.038;8.710;2023-04-08T04:56:51;14.90;;;10.63;;
10122;SDS011;5101;49.038;8.710;2023-04-08T04:59:16;15.50;;;11.98;;
10122;SDS011;5101;49.038;8.710;2023-04-08T05:01:42;15.48;;;11.60;;
10122;SDS011;5101;49.038;8.710;2023-04-08T05:04:07;16.60;;;11.07;;
10122;SDS011;5101;49.038;8.710;2023-04-08T05:06:33;13.65;;;10.80;;
10122;SDS011;5101;49.038;8.710;2023-04-08T05:08:58;16.13;;;10.50;;
10122;SDS011;5101;49.038;8.710;2023-04-08T05:11:24;15.50;;;11.13;;
10122;SDS011;5101;49.038;8.710;2023-04-08T05:13:50;15.57;;;11.57;;
10122;SDS011;5101;49.038;8.710;2023-04-08T05:16:15;17.02;;;11.98;;
10122;SDS011;5101;49.038;8.710;2023-04-08T05:18:41;16.00;;;10.73;;
10122;SDS011;5101;49.038;8.710;2023-04-08T05:21:07;17.25;;;11.43;;
10122;SDS011;5101;49.038;8.710;2023-04-08T05:23:35;17.35;;;11.77;;
10122;SDS011;5101;49.038;8.710;2023-04-08T05:26:01;16.00;;;11.25;;
10122;SDS011;5101;49.038;8.710;2023-04-08T05:28:26;15.25;;;11.15;;
10122;SDS011;5101;49.038;8.710;2023-04-08T05:30:52;18.30;;;11.75;;
10122;SDS011;5101;49.038;8.710;2023-04-08T05:33:18;15.15;;;11.57;;
10122;SDS011;5101;49.038;8.710;2023-04-08T05:35:44;15.00;;;10.88;;
10122;SDS011;5101;49.038;8.710;2023-04-08T05:38:10;16.33;;;11.70;;
10122;SDS011;5101;49.038;8.710;2023-04-08T05:40:36;15.07;;;11.73;;
10122;SDS011;5101;49.038;8.710;2023-04-08T05:43:02;15.05;;;11.73;;
10122;SDS011;5101;49.038;8.710;2023-04-08T05:45:27;14.63;;;11.20;;
10122;SDS011;5101;49.038;8.710;2023-04-08T05:47:53;17.27;;;11.80;;
10122;SDS011;5101;49.038;8.710;2023-04-08T05:50:19;16.63;;;12.25;;
10122;SDS011;5101;49.038;8.710;2023-04-08T05:52:44;19.20;;;13.15;;
10122;SDS011;5101;49.038;8.710;2023-04-08T05:55:10;16.58;;;12.43;;
10122;SDS011;5101;49.038;8.710;2023-04-08T05:57:37;17.90;;;12.02;;
10122;SDS011;5101;49.038;8.710;2023-04-08T06:00:03;18.30;;;12.82;;
10122;SDS011;5101;49.038;8.710;2023-04-08T06:02:30;19.85;;;12.75;;
10122;SDS011;5101;49.038;8.710;2023-04-08T06:04:55;15.95;;;11.38;;
10122;SDS011;5101;49.038;8.710;2023-04-08T06:07:21;15.65;;;11.15;;
10122;SDS011;5101;49.038;8.710;2023-04-08T06:09:46;15.07;;;11.65;;
10122;SDS011;5101;49.038;8.710;2023-04-08T06:12:12;16.52;;;12.18;;
10122;SDS011;5101;49.038;8.710;2023-04-08T06:14:37;15.43;;;11.13;;
10122;SDS011;5101;49.038;8.710;2023-04-08T06:17:03;17.00;;;11.93;;
10122;SDS011;5101;49.038;8.710;2023-04-08T06:19:29;15.63;;;11.68;;
10122;SDS011;5101;49.038;8.710;2023-04-08T06:21:54;17.75;;;11.43;;
10122;SDS011;5101;49.038;8.710;2023-04-08T06:24:23;15.75;;;11.50;;
10122;SDS011;5101;49.038;8.710;2023-04-08T06:26:50;17.05;;;12.57;;
10122;SDS011;5101;49.038;8.710;2023-04-08T06:29:17;15.10;;;11.48;;
10122;SDS011;5101;49.038;8.710;2023-04-08T06:31:42;20.75;;;12.35;;
10122;SDS011;5101;49.038;8.710;2023-04-08T06:34:08;17.42;;;12.13;;
10122;SDS011;5101;49.038;8.710;2023-04-08T06:36:33;18.52;;;13.00;;
10122;SDS011;5101;49.038;8.710;2023-04-08T06:38:59;19.92;;;13.27;;
10122;SDS011;5101;49.038;8.710;2023-04-08T06:41:24;15.82;;;12.07;;
10122;SDS011;5101;49.038;8.710;2023-04-08T06:43:50;17.92;;;12.48;;
10122;SDS011;5101;49.038;8.710;2023-04-08T06:46:15;16.60;;;12.25;;
10122;SDS011;5101;49.038;8.710;2023-04-08T06:48:41;18.08;;;12.48;;
10122;SDS011;5101;49.038;8.710;2023-04-08T06:51:07;18.33;;;13.10;;
10122;SDS011;5101;49.038;8.710;2023-04-08T06:53:32;17.10;;;12.80;;
10122;SDS011;5101;49.038;8.710;2023-04-08T06:55:58;19.40;;;13.32;;
10122;SDS011;5101;49.038;8.710;2023-04-08T06:58:24;19.23;;;13.38;;
10122;SDS011;5101;49.038;8.710;2023-04-08T07:00:49;18.08;;;13.02;;
10122;SDS011;5101;49.038;8.710;2023-04-08T07:03:17;16.65;;;13.52;;
10122;SDS011;5101;49.038;8.710;2023-04-08T07:05:42;18.33;;;13.32;;
10122;SDS011;5101;49.038;8.710;2023-04-08T07:08:08;17.48;;;12.85;;
10122;SDS011;5101;49.038;8.710;2023-04-08T07:10:34;18.10;;;12.90;;
10122;SDS011;5101;49.038;8.710;2023-04-08T07:13:00;15.70;;;12.52;;
10122;SDS011;5101;49.038;8.710;2023-04-08T07:15:26;17.83;;;12.98;;
10122;SDS011;5101;49.038;8.710;2023-04-08T07:17:51;17.55;;;12.68;;
10122;SDS011;5101;49.038;8.710;2023-04-08T07:20:17;16.52;;;12.55;;
10122;SDS011;5101;49.038;8.710;2023-04-08T07:22:42;13.43;;;10.93;;
10122;SDS011;5101;49.038;8.710;2023-04-08T07:25:08;14.93;;;11.68;;
10122;SDS011;5101;49.038;8.710;2023-04-08T07:27:33;14.15;;;11.98;;
10122;SDS011;5101;49.038;8.710;2023-04-08T07:29:59;14.98;;;12.10;;
10122;SDS011;5101;49.038;8.710;2023-04-08T07:32:25;14.43;;;11.32;;
10122;SDS011;5101;49.038;8.710;2023-04-08T07:34:51;14.23;;;11.90;;
10122;SDS011;5101;49.038;8.710;2023-04-08T07:37:17;13.02;;;10.68;;
10122;SDS011;5101;49.038;8.710;2023-04-08T07:39:42;12.45;;;11.15;;
10122;SDS011;5101;49.038;8.710;2023-04-08T07:42:08;12.75;;;10.43;;
10122;SDS011;5101;49.038;8.710;2023-04-08T07:44:33;13.65;;;11.23;;
10122;SDS011;5101;49.038;8.710;2023-04-08T07:46:59;14.18;;;10.40;;
10122;SDS011;5101;49.038;8.710;2023-04-08T07:49:25;11.73;;;10.27;;
10122;SDS011;5101;49.038;8.710;2023-04-08T07:51:50;13.45;;;10.18;;
10122;SDS011;5101;49.038;8.710;2023-04-08T07:54:17;11.98;;;9.73;;
10122;SDS011;5101;49.038;8.710;2023-04-08T07:56:42;11.77;;;9.80;;
10122;SDS011;5101;49.038;8.710;2023-04-08T07:59:09;11.77;;;9.77;;
10122;SDS011;5101;49.038;8.710;2023-04-08T08:01:35;11.38;;;10.10;;
10122;SDS011;5101;49.038;8.710;2023-04-08T08:04:01;10.70;;;9.63;;
10122;SDS011;5101;49.038;8.710;2023-04-08T08:06:27;9.90;;;8.85;;
10122;SDS011;5101;49.038;8.710;2023-04-08T08:08:53;12.50;;;9.48;;
10122;SDS011;5101;49.038;8.710;2023-04-08T08:11:18;9.75;;;8.35;;
10122;SDS011;5101;49.038;8.710;2023-04-08T08:13:45;10.57;;;9.50;;
10122;SDS011;5101;49.038;8.710;2023-04-08T08:16:11;10.55;;;9.05;;
10122;SDS011;5101;49.038;8.710;2023-04-08T08:18:36;9.45;;;8.55;;
10122;SDS011;5101;49.038;8.710;2023-04-08T08:21:03;9.55;;;8.63;;
10122;SDS011;5101;49.038;8.710;2023-04-08T08:23:29;9.48;;;8.57;;
10122;SDS011;5101;49.038;8.710;2023-04-08T08:25:59;8.40;;;7.57;;
10122;SDS011;5101;49.038;8.710;2023-04-08T08:28:26;9.45;;;8.15;;
10122;SDS011;5101;49.038;8.710;2023-04-08T08:30:52;9.43;;;8.35;;
10122;SDS011;5101;49.038;8.710;2023-04-08T08:33:17;8.55;;;7.60;;
10122;SDS011;5101;49.038;8.710;2023-04-08T08:35:43;12.15;;;9.18;;
10122;SDS011;5101;49.038;8.710;2023-04-08T08:38:08;10.77;;;8.88;;
10122;SDS011;5101;49.038;8.710;2023-04-08T08:40:34;9.02;;;8.23;;
10122;SDS011;5101;49.038;8.710;2023-04-08T08:43:00;9.75;;;8.85;;
10122;SDS011;5101;49.038;8.710;2023-04-08T08:45:25;9.40;;;8.50;;
10122;SDS011;5101;49.038;8.710;2023-04-08T08:47:51;9.85;;;8.95;;
10122;SDS011;5101;49.038;8.710;2023-04-08T08:50:17;7.95;;;7.20;;
10122;SDS011;5101;49.038;8.710;2023-04-08T08:52:49;8.20;;;7.40;;
10122;SDS011;5101;49.038;8.710;2023-04-08T08:55:19;9.70;;;7.50;;
10122;SDS011;5101;49.038;8.710;2023-04-08T08:57:45;9.13;;;7.50;;
10122;SDS011;5101;49.038;8.710;2023-04-08T09:00:14;8.63;;;7.78;;
10122;SDS011;5101;49.038;8.710;2023-04-08T09:02:40;8.38;;;7.57;;
10122;SDS011;5101;49.038;8.710;2023-04-08T09:05:06;8.00;;;7.30;;
10122;SDS011;5101;49.038;8.710;2023-04-08T09:07:34;8.63;;;7.72;;
10122;SDS011;5101;49.038;8.710;2023-04-08T09:10:00;8.30;;;7.50;;
10122;SDS011;5101;49.038;8.710;2023-04-08T09:12:26;8.10;;;7.30;;
10122;SDS011;5101;49.038;8.710;2023-04-08T09:15:08;7.75;;;7.05;;
10122;SDS011;5101;49.038;8.710;2023-04-08T09:17:35;8.82;;;7.28;;
10122;SDS011;5101;49.038;8.710;2023-04-08T09:20:06;7.72;;;7.03;;
10122;SDS011;5101;49.038;8.710;2023-04-08T09:25:27;8.23;;;7.53;;
10122;SDS011;5101;49.038;8.710;2023-04-08T09:27:56;9.00;;;7.57;;
10122;SDS011;5101;49.038;8.710;2023-04-08T09:30:22;7.18;;;6.53;;
10122;SDS011;5101;49.038;8.710;2023-04-08T09:32:55;8.00;;;7.25;;
10122;SDS011;5101;49.038;8.710;2023-04-08T09:35:22;7.80;;;7.10;;
10122;SDS011;5101;49.038;8.710;2023-04-08T09:37:48;8.75;;;7.32;;
10122;SDS011;5101;49.038;8.710;2023-04-08T09:40:15;7.05;;;6.45;;
10122;SDS011;5101;49.038;8.710;2023-04-08T09:42:45;7.35;;;6.75;;
10122;SDS011;5101;49.038;8.710;2023-04-08T09:45:12;8.05;;;7.32;;
10122;SDS011;5101;49.038;8.710;2023-04-08T09:47:47;7.07;;;6.47;;
10122;SDS011;5101;49.038;8.710;2023-04-08T09:50:22;6.95;;;6.25;;
10122;SDS011;5101;49.038;8.710;2023-04-08T09:52:52;7.57;;;6.90;;
10122;SDS011;5101;49.038;8.710;2023-04-08T09:55:24;6.75;;;6.15;;
10122;SDS011;5101;49.038;8.710;2023-04-08T09:57:54;7.30;;;6.70;;
10122;SDS011;5101;49.038;8.710;2023-04-08T10:00:48;6.15;;;5.65;;
10122;SDS011;5101;49.038;8.710;2023-04-08T10:03:24;6.05;;;5.45;;
10122;SDS011;5101;49.038;8.710;2023-04-08T10:05:55;6.57;;;5.97;;
10122;SDS011;5101;49.038;8.710;2023-04-08T10:08:24;7.30;;;6.70;;
10122;SDS011;5101;49.038;8.710;2023-04-08T10:10:51;6.85;;;6.15;;
10122;SDS011;5101;49.038;8.710;2023-04-08T10:13:17;6.47;;;5.97;;
10122;SDS011;5101;49.038;8.710;2023-04-08T10:15:43;8.13;;;6.68;;
10122;SDS011;5101;49.038;8.710;2023-04-08T10:20:46;7.78;;;7.07;;
10122;SDS011;5101;49.038;8.710;2023-04-08T10:23:16;6.97;;;6.25;;
10122;SDS011;5101;49.038;8.710;2023-04-08T10:25:43;6.82;;;6.13;;
10122;SDS011;5101;49.038;8.710;2023-04-08T10:35:38;6.70;;;6.15;;
10122;SDS011;5101;49.038;8.710;2023-04-08T10:38:12;7.07;;;6.47;;
10122;SDS011;5101;49.038;8.710;2023-04-08T10:40:39;7.75;;;6.45;;
10122;SDS011;5101;49.038;8.710;2023-04-08T10:43:06;6.13;;;5.63;;
10122;SDS011;5101;49.038;8.710;2023-04-08T10:45:33;6.82;;;6.25;;
10122;SDS011;5101;49.038;8.710;2023-04-08T10:50:43;7.32;;;6.63;;
10122;SDS011;5101;49.038;8.710;2023-04-08T10:53:22;7.05;;;6.43;;
10122;SDS011;5101;49.038;8.710;2023-04-08T10:55:52;7.13;;;6.53;;
10122;SDS011;5101;49.038;8.710;2023-04-08T10:58:18;7.25;;;6.65;;
10122;SDS011;5101;49.038;8.710;2023-04-08T11:00:43;7.65;;;6.90;;
10122;SDS011;5101;49.038;8.710;2023-04-08T11:03:09;7.65;;;6.95;;
10122;SDS011;5101;49.038;8.710;2023-04-08T11:05:35;7.20;;;6.50;;
10122;SDS011;5101;49.038;8.710;2023-04-08T11:08:02;6.72;;;6.15;;
10122;SDS011;5101;49.038;8.710;2023-04-08T11:10:29;9.55;;;6.63;;
10122;SDS011;5101;49.038;8.710;2023-04-08T11:12:56;7.28;;;6.57;;
10122;SDS011;5101;49.038;8.710;2023-04-08T11:15:25;9.15;;;6.82;;
10122;SDS011;5101;49.038;8.710;2023-04-08T11:17:52;6.53;;;5.93;;
10122;SDS011;5101;49.038;8.710;2023-04-08T11:20:19;6.90;;;6.25;;
10122;SDS011;5101;49.038;8.710;2023-04-08T11:22:45;6.55;;;5.95;;
10122;SDS011;5101;49.038;8.710;2023-04-08T11:25:11;6.78;;;6.18;;
10122;SDS011;5101;49.038;8.710;2023-04-08T11:27:37;6.57;;;5.97;;
10122;SDS011;5101;49.038;8.710;2023-04-08T11:30:05;7.07;;;6.38;;
10122;SDS011;5101;49.038;8.710;2023-04-08T11:32:31;6.28;;;5.68;;
10122;SDS011;5101;49.038;8.710;2023-04-08T11:34:58;6.13;;;5.53;;
10122;SDS011;5101;49.038;8.710;2023-04-08T11:37:26;6.10;;;5.60;;
10122;SDS011;5101;49.038;8.710;2023-04-08T11:40:00;7.15;;;6.20;;
10122;SDS011;5101;49.038;8.710;2023-04-08T11:42:30;6.63;;;6.03;;
10122;SDS011;5101;49.038;8.710;2023-04-08T11:44:57;8.52;;;5.60;;
10122;SDS011;5101;49.038;8.710;2023-04-08T11:47:32;6.40;;;5.80;;
10122;SDS011;5101;49.038;8.710;2023-04-08T11:49:59;8.15;;;6.05;;
10122;SDS011;5101;49.038;8.710;2023-04-08T11:52:41;7.25;;;6.13;;
10122;SDS011;5101;49.038;8.710;2023-04-08T11:55:08;6.55;;;5.93;;
10122;SDS011;5101;49.038;8.710;2023-04-08T11:57:35;6.40;;;5.80;;
10122;SDS011;5101;49.038;8.710;2023-04-08T12:00:01;7.00;;;6.30;;
10122;SDS011;5101;49.038;8.710;2023-04-08T12:02:29;6.30;;;5.70;;
10122;SDS011;5101;49.038;8.710;2023-04-08T12:04:55;9.27;;;7.30;;
10122;SDS011;5101;49.038;8.710;2023-04-08T12:07:20;7.50;;;6.50;;
10122;SDS011;5101;49.038;8.710;2023-04-08T12:09:46;6.95;;;6.30;;
10122;SDS011;5101;49.038;8.710;2023-04-08T12:12:11;6.40;;;5.80;;
10122;SDS011;5101;49.038;8.710;2023-04-08T12:14:37;7.72;;;6.93;;
10122;SDS011;5101;49.038;8.710;2023-04-08T12:17:02;7.55;;;6.82;;
10122;SDS011;5101;49.038;8.710;2023-04-08T12:19:28;6.13;;;5.63;;
10122;SDS011;5101;49.038;8.710;2023-04-08T12:21:54;7.10;;;6.40;;
10122;SDS011;5101;49.038;8.710;2023-04-08T12:24:19;8.75;;;6.00;;
10122;SDS011;5101;49.038;8.710;2023-04-08T12:26:45;6.82;;;6.15;;
10122;SDS011;5101;49.038;8.710;2023-04-08T12:29:10;6.57;;;5.95;;
10122;SDS011;5101;49.038;8.710;2023-04-08T12:31:36;8.00;;;5.63;;
10122;SDS011;5101;49.038;8.710;2023-04-08T12:34:02;6.80;;;6.20;;
10122;SDS011;5101;49.038;8.710;2023-04-08T12:36:27;7.00;;;6.30;;
10122;SDS011;5101;49.038;8.710;2023-04-08T12:38:53;6.78;;;6.18;;
10122;SDS011;5101;49.038;8.710;2023-04-08T12:41:18;7.10;;;5.80;;
10122;SDS011;5101;49.038;8.710;2023-04-08T12:43:44;6.15;;;5.53;;
10122;SDS011;5101;49.038;8.710;2023-04-08T12:46:09;7.07;;;6.35;;
10122;SDS011;5101;49.038;8.710;2023-04-08T12:48:35;6.63;;;6.03;;
10122;SDS011;5101;49.038;8.710;2023-04-08T12:51:01;7.15;;;6.45;;
10122;SDS011;5101;49.038;8.710;2023-04-08T12:53:27;7.85;;;6.90;;
10122;SDS011;5101;49.038;8.710;2023-04-08T12:55:52;6.95;;;6.18;;
10122;SDS011;5101;49.038;8.710;2023-04-08T12:58:21;8.93;;;6.40;;
10122;SDS011;5101;49.038;8.710;2023-04-08T13:00:48;6.85;;;6.20;;
10122;SDS011;5101;49.038;8.710;2023-04-08T13:03:13;7.18;;;6.40;;
10122;SDS011;5101;49.038;8.710;2023-04-08T13:05:41;7.15;;;6.45;;
10122;SDS011;5101;49.038;8.710;2023-04-08T13:08:07;8.70;;;6.65;;
10122;SDS011;5101;49.038;8.710;2023-04-08T13:10:33;7.97;;;6.50;;
10122;SDS011;5101;49.038;8.710;2023-04-08T13:12:58;7.60;;;6.50;;
10122;SDS011;5101;49.038;8.710;2023-04-08T13:15:24;6.97;;;6.38;;
10122;SDS011;5101;49.038;8.710;2023-04-08T13:17:50;6.78;;;5.68;;
10122;SDS011;5101;49.038;8.710;2023-04-08T13:20:16;8.93;;;7.80;;
10122;SDS011;5101;49.038;8.710;2023-04-08T13:22:41;8.20;;;7.40;;
10122;SDS011;5101;49.038;8.710;2023-04-08T13:25:07;7.22;;;6.63;;
10122;SDS011;5101;49.038;8.710;2023-04-08T13:27:32;6.90;;;6.13;;
10122;SDS011;5101;49.038;8.710;2023-04-08T13:29:58;7.15;;;6.55;;
10122;SDS011;5101;49.038;8.710;2023-04-08T13:32:23;11.50;;;7.90;;
10122;SDS011;5101;49.038;8.710;2023-04-08T13:34:49;7.70;;;6.50;;
10122;SDS011;5101;49.038;8.710;2023-04-08T13:37:15;6.93;;;6.32;;
10122;SDS011;5101;49.038;8.710;2023-04-08T13:39:40;6.50;;;5.90;;
10122;SDS011;5101;49.038;8.710;2023-04-08T13:42:06;7.18;;;6.57;;
10122;SDS011;5101;49.038;8.710;2023-04-08T13:44:31;7.50;;;6.55;;
10122;SDS011;5101;49.038;8.710;2023-04-08T13:46:57;7.43;;;6.65;;
10122;SDS011;5101;49.038;8.710;2023-04-08T13:49:23;6.45;;;5.80;;
10122;SDS011;5101;49.038;8.710;2023-04-08T13:51:49;6.60;;;6.00;;
10122;SDS011;5101;49.038;8.710;2023-04-08T13:54:15;5.78;;;5.28;;
10122;SDS011;5101;49.038;8.710;2023-04-08T13:56:41;7.40;;;5.55;;
10122;SDS011;5101;49.038;8.710;2023-04-08T13:59:06;5.10;;;4.00;;
10122;SDS011;5101;49.038;8.710;2023-04-08T14:01:34;4.03;;;3.63;;
10122;SDS011;5101;49.038;8.710;2023-04-08T14:03:59;3.78;;;3.50;;
10122;SDS011;5101;49.038;8.710;2023-04-08T14:06:25;4.32;;;3.92;;
10122;SDS011;5101;49.038;8.710;2023-04-08T14:08:51;4.40;;;3.60;;
10122;SDS011;5101;49.038;8.710;2023-04-08T14:11:16;4.07;;;3.67;;
10122;SDS011;5101;49.038;8.710;2023-04-08T14:13:42;3.58;;;3.28;;
10122;SDS011;5101;49.038;8.710;2023-04-08T14:16:07;5.22;;;3.55;;
10122;SDS011;5101;49.038;8.710;2023-04-08T14:18:33;4.05;;;3.75;;
10122;SDS011;5101;49.038;8.710;2023-04-08T14:20:59;3.22;;;3.03;;
10122;SDS011;5101;49.038;8.710;2023-04-08T14:23:24;3.47;;;3.17;;
10122;SDS011;5101;49.038;8.710;2023-04-08T14:25:50;3.42;;;3.13;;
10122;SDS011;5101;49.038;8.710;2023-04-08T14:28:15;4.97;;;3.40;;
10122;SDS011;5101;49.038;8.710;2023-04-08T14:30:41;3.65;;;3.35;;
10122;SDS011;5101;49.038;8.710;2023-04-08T14:33:06;3.60;;;3.30;;
10122;SDS011;5101;49.038;8.710;2023-04-08T14:35:32;3.30;;;3.00;;
10122;SDS011;5101;49.038;8.710;2023-04-08T14:37:57;5.50;;;3.75;;
10122;SDS011;5101;49.038;8.710;2023-04-08T14:40:23;3.75;;;3.38;;
10122;SDS011;5101;49.038;8.710;2023-04-08T14:42:48;3.25;;;2.95;;
10122;SDS011;5101;49.038;8.710;2023-04-08T14:45:14;4.68;;;3.30;;
10122;SDS011;5101;49.038;8.710;2023-04-08T14:47:40;5.47;;;4.50;;
10122;SDS011;5101;49.038;8.710;2023-04-08T14:50:06;4.15;;;3.75;;
10122;SDS011;5101;49.038;8.710;2023-04-08T14:52:32;4.03;;;3.70;;
10122;SDS011;5101;49.038;8.710;2023-04-08T14:54:57;4.00;;;3.20;;
10122;SDS011;5101;49.038;8.710;2023-04-08T14:57:23;3.70;;;3.40;;
10122;SDS011;5101;49.038;8.710;2023-04-08T14:59:48;3.33;;;2.95;;
10122;SDS011;5101;49.038;8.710;2023-04-08T15:02:15;3.30;;;2.83;;
10122;SDS011;5101;49.038;8.710;2023-04-08T15:04:40;4.35;;;4.00;;
10122;SDS011;5101;49.038;8.710;2023-04-08T15:07:06;4.53;;;4.10;;
10122;SDS011;5101;49.038;8.710;2023-04-08T15:09:32;4.53;;;3.85;;